sensor_id;sensor_type;location;lat;lon;timestamp;temperature;humidity
33271;DHT22;53180;51.344;6.152;2022-09-09T00:02:19;13.70;96.70
33271;DHT22;53180;51.344;6.152;2022-09-09T00:04:58;13.70;96.70
33271;DHT22;53180;51.344;6.152;2022-09-09T00:07:36;13.70;96.70
33271;DHT22;53180;51.344;6.152;2022-09-09T00:10:16;13.60;96.70
33271;DHT22;53180;51.344;6.152;2022-09-09T00:12:54;13.50;96.60
33271;DHT22;53180;51.344;6.152;2022-09-09T00:15:31;13.50;96.60
33271;DHT22;53180;51.344;6.152;2022-09-09T00:18:11;13.50;96.60
33271;DHT22;53180;51.344;6.152;2022-09-09T00:20:46;13.40;96.50
33271;DHT22;53180;51.344;6.152;2022-09-09T00:23:24;13.40;96.50
33271;DHT22;53180;51.344;6.152;2022-09-09T00:26:00;13.40;96.50
33271;DHT22;53180;51.344;6.152;2022-09-09T00:28:35;13.40;96.40
33271;DHT22;53180;51.344;6.152;2022-09-09T00:31:12;13.40;96.40
33271;DHT22;53180;51.344;6.152;2022-09-09T00:33:43;13.40;96.40
33271;DHT22;53180;51.344;6.152;2022-09-09T00:36:15;13.40;96.40
33271;DHT22;53180;51.344;6.152;2022-09-09T00:38:51;13.40;96.50
33271;DHT22;53180;51.344;6.152;2022-09-09T00:41:28;13.30;96.40
33271;DHT22;53180;51.344;6.152;2022-09-09T00:44:02;13.40;96.40
33271;DHT22;53180;51.344;6.152;2022-09-09T00:47:09;13.40;96.50
33271;DHT22;53180;51.344;6.152;2022-09-09T00:49:52;13.40;96.40
33271;DHT22;53180;51.344;6.152;2022-09-09T00:52:36;13.50;96.40
33271;DHT22;53180;51.344;6.152;2022-09-09T00:55:14;13.50;96.40
33271;DHT22;53180;51.344;6.152;2022-09-09T00:57:46;13.50;96.40
33271;DHT22;53180;51.344;6.152;2022-09-09T01:00:21;13.50;96.40
33271;DHT22;53180;51.344;6.152;2022-09-09T01:06:02;13.60;96.40
33271;DHT22;53180;51.344;6.152;2022-09-09T01:09:15;13.60;96.50
33271;DHT22;53180;51.344;6.152;2022-09-09T01:11:57;13.60;96.40
33271;DHT22;53180;51.344;6.152;2022-09-09T01:14:38;13.70;96.40
33271;DHT22;53180;51.344;6.152;2022-09-09T01:17:13;13.70;96.40
33271;DHT22;53180;51.344;6.152;2022-09-09T01:20:02;13.70;96.40
33271;DHT22;53180;51.344;6.152;2022-09-09T01:22:37;13.70;96.40
33271;DHT22;53180;51.344;6.152;2022-09-09T01:25:22;13.70;96.30
33271;DHT22;53180;51.344;6.152;2022-09-09T01:27:58;13.80;96.30
33271;DHT22;53180;51.344;6.152;2022-09-09T01:30:28;13.70;96.30
33271;DHT22;53180;51.344;6.152;2022-09-09T01:32:58;13.70;96.30
33271;DHT22;53180;51.344;6.152;2022-09-09T01:35:36;13.80;96.30
33271;DHT22;53180;51.344;6.152;2022-09-09T01:38:07;13.70;96.30
33271;DHT22;53180;51.344;6.152;2022-09-09T01:40:35;13.70;96.30
33271;DHT22;53180;51.344;6.152;2022-09-09T01:43:06;13.70;96.30
33271;DHT22;53180;51.344;6.152;2022-09-09T01:45:34;13.70;96.30
33271;DHT22;53180;51.344;6.152;2022-09-09T01:48:03;13.70;96.30
33271;DHT22;53180;51.344;6.152;2022-09-09T01:50:32;13.70;96.30
33271;DHT22;53180;51.344;6.152;2022-09-09T01:53:01;13.70;96.30
33271;DHT22;53180;51.344;6.152;2022-09-09T01:55:32;13.70;96.30
33271;DHT22;53180;51.344;6.152;2022-09-09T01:58:14;13.70;96.30
33271;DHT22;53180;51.344;6.152;2022-09-09T02:00:54;13.70;96.30
33271;DHT22;53180;51.344;6.152;2022-09-09T02:03:28;13.70;96.30
33271;DHT22;53180;51.344;6.152;2022-09-09T02:06:03;13.70;96.40
33271;DHT22;53180;51.344;6.152;2022-09-09T02:08:40;13.70;96.30
33271;DHT22;53180;51.344;6.152;2022-09-09T02:11:14;13.60;96.30
33271;DHT22;53180;51.344;6.152;2022-09-09T02:13:45;13.60;96.30
33271;DHT22;53180;51.344;6.152;2022-09-09T02:16:18;13.60;96.30
33271;DHT22;53180;51.344;6.152;2022-09-09T02:18:53;13.60;96.40
33271;DHT22;53180;51.344;6.152;2022-09-09T02:21:24;13.60;96.40
33271;DHT22;53180;51.344;6.152;2022-09-09T02:23:55;13.60;96.40
33271;DHT22;53180;51.344;6.152;2022-09-09T02:26:26;13.60;96.30
33271;DHT22;53180;51.344;6.152;2022-09-09T02:29:00;13.60;96.30
33271;DHT22;53180;51.344;6.152;2022-09-09T02:31:30;13.60;96.30
33271;DHT22;53180;51.344;6.152;2022-09-09T02:34:03;13.60;96.30
33271;DHT22;53180;51.344;6.152;2022-09-09T02:36:35;13.50;96.30
33271;DHT22;53180;51.344;6.152;2022-09-09T02:39:07;13.60;96.30
33271;DHT22;53180;51.344;6.152;2022-09-09T02:41:40;13.50;96.30
33271;DHT22;53180;51.344;6.152;2022-09-09T02:44:12;13.60;96.30
33271;DHT22;53180;51.344;6.152;2022-09-09T02:47:00;13.60;96.30
33271;DHT22;53180;51.344;6.152;2022-09-09T02:49:42;13.50;96.30
33271;DHT22;53180;51.344;6.152;2022-09-09T02:52:19;13.60;96.30
33271;DHT22;53180;51.344;6.152;2022-09-09T02:54:51;13.60;96.40
33271;DHT22;53180;51.344;6.152;2022-09-09T02:57:25;13.60;96.40
33271;DHT22;53180;51.344;6.152;2022-09-09T02:59:58;13.70;96.40
33271;DHT22;53180;51.344;6.152;2022-09-09T03:02:28;13.70;96.30
33271;DHT22;53180;51.344;6.152;2022-09-09T03:04:57;13.70;96.30
33271;DHT22;53180;51.344;6.152;2022-09-09T03:07:25;13.70;96.30
33271;DHT22;53180;51.344;6.152;2022-09-09T03:09:54;13.70;96.30
33271;DHT22;53180;51.344;6.152;2022-09-09T03:12:22;13.80;96.30
33271;DHT22;53180;51.344;6.152;2022-09-09T03:14:50;13.80;96.20
33271;DHT22;53180;51.344;6.152;2022-09-09T03:17:20;13.80;96.20
33271;DHT22;53180;51.344;6.152;2022-09-09T03:19:48;13.80;96.30
33271;DHT22;53180;51.344;6.152;2022-09-09T03:22:19;13.90;96.20
33271;DHT22;53180;51.344;6.152;2022-09-09T03:24:47;13.90;96.20
33271;DHT22;53180;51.344;6.152;2022-09-09T03:27:16;13.90;96.20
33271;DHT22;53180;51.344;6.152;2022-09-09T03:29:46;13.90;96.20
33271;DHT22;53180;51.344;6.152;2022-09-09T03:32:20;14.00;96.20
33271;DHT22;53180;51.344;6.152;2022-09-09T03:34:50;14.00;96.20
33271;DHT22;53180;51.344;6.152;2022-09-09T03:37:19;13.90;96.20
33271;DHT22;53180;51.344;6.152;2022-09-09T03:39:47;14.00;96.20
33271;DHT22;53180;51.344;6.152;2022-09-09T03:42:16;14.00;96.20
33271;DHT22;53180;51.344;6.152;2022-09-09T03:44:46;14.00;96.20
33271;DHT22;53180;51.344;6.152;2022-09-09T03:47:17;14.10;96.10
33271;DHT22;53180;51.344;6.152;2022-09-09T03:49:47;14.10;96.10
33271;DHT22;53180;51.344;6.152;2022-09-09T03:52:16;14.10;96.10
33271;DHT22;53180;51.344;6.152;2022-09-09T03:54:49;14.10;96.10
33271;DHT22;53180;51.344;6.152;2022-09-09T03:57:18;14.20;96.10
33271;DHT22;53180;51.344;6.152;2022-09-09T03:59:46;14.20;96.10
33271;DHT22;53180;51.344;6.152;2022-09-09T04:02:14;14.10;96.10
33271;DHT22;53180;51.344;6.152;2022-09-09T04:04:43;14.20;96.10
33271;DHT22;53180;51.344;6.152;2022-09-09T04:07:13;14.20;96.10
33271;DHT22;53180;51.344;6.152;2022-09-09T04:09:42;14.20;96.00
33271;DHT22;53180;51.344;6.152;2022-09-09T04:12:10;14.20;96.00
33271;DHT22;53180;51.344;6.152;2022-09-09T04:14:40;14.20;96.00
33271;DHT22;53180;51.344;6.152;2022-09-09T04:17:08;14.20;96.00
33271;DHT22;53180;51.344;6.152;2022-09-09T04:19:37;14.30;96.10
33271;DHT22;53180;51.344;6.152;2022-09-09T04:22:05;14.20;96.10
33271;DHT22;53180;51.344;6.152;2022-09-09T04:24:35;14.20;96.10
33271;DHT22;53180;51.344;6.152;2022-09-09T04:27:03;14.30;96.00
33271;DHT22;53180;51.344;6.152;2022-09-09T04:29:31;14.30;96.00
33271;DHT22;53180;51.344;6.152;2022-09-09T04:32:00;14.30;96.00
33271;DHT22;53180;51.344;6.152;2022-09-09T04:34:29;14.30;96.00
33271;DHT22;53180;51.344;6.152;2022-09-09T04:36:58;14.30;95.90
33271;DHT22;53180;51.344;6.152;2022-09-09T04:39:27;14.30;95.90
33271;DHT22;53180;51.344;6.152;2022-09-09T04:41:57;14.40;95.90
33271;DHT22;53180;51.344;6.152;2022-09-09T04:44:25;14.40;95.80
33271;DHT22;53180;51.344;6.152;2022-09-09T04:46:54;14.40;95.80
33271;DHT22;53180;51.344;6.152;2022-09-09T04:49:22;14.40;95.80
33271;DHT22;53180;51.344;6.152;2022-09-09T04:51:51;14.50;95.80
33271;DHT22;53180;51.344;6.152;2022-09-09T04:54:19;14.40;95.70
33271;DHT22;53180;51.344;6.152;2022-09-09T04:56:49;14.50;95.70
33271;DHT22;53180;51.344;6.152;2022-09-09T04:59:19;14.50;95.70
33271;DHT22;53180;51.344;6.152;2022-09-09T05:01:48;14.50;95.60
33271;DHT22;53180;51.344;6.152;2022-09-09T05:04:17;14.50;95.50
33271;DHT22;53180;51.344;6.152;2022-09-09T05:06:46;14.50;95.50
33271;DHT22;53180;51.344;6.152;2022-09-09T05:09:15;14.50;95.40
33271;DHT22;53180;51.344;6.152;2022-09-09T05:11:43;14.60;95.50
33271;DHT22;53180;51.344;6.152;2022-09-09T05:14:11;14.60;95.30
33271;DHT22;53180;51.344;6.152;2022-09-09T05:16:44;14.60;95.30
33271;DHT22;53180;51.344;6.152;2022-09-09T05:19:13;14.70;95.10
33271;DHT22;53180;51.344;6.152;2022-09-09T05:21:42;14.70;95.10
33271;DHT22;53180;51.344;6.152;2022-09-09T05:24:10;14.70;95.00
33271;DHT22;53180;51.344;6.152;2022-09-09T05:26:38;14.70;94.90
33271;DHT22;53180;51.344;6.152;2022-09-09T05:29:07;14.70;94.80
33271;DHT22;53180;51.344;6.152;2022-09-09T05:31:35;14.80;94.80
33271;DHT22;53180;51.344;6.152;2022-09-09T05:34:05;14.80;94.60
33271;DHT22;53180;51.344;6.152;2022-09-09T05:36:34;14.80;94.60
33271;DHT22;53180;51.344;6.152;2022-09-09T05:39:02;14.70;94.60
33271;DHT22;53180;51.344;6.152;2022-09-09T05:41:31;14.80;94.50
33271;DHT22;53180;51.344;6.152;2022-09-09T05:43:59;14.80;94.50
33271;DHT22;53180;51.344;6.152;2022-09-09T05:46:28;14.80;94.40
33271;DHT22;53180;51.344;6.152;2022-09-09T05:48:56;14.80;94.40
33271;DHT22;53180;51.344;6.152;2022-09-09T05:51:27;14.80;94.60
33271;DHT22;53180;51.344;6.152;2022-09-09T05:53:56;14.80;94.60
33271;DHT22;53180;51.344;6.152;2022-09-09T05:56:27;14.80;94.50
33271;DHT22;53180;51.344;6.152;2022-09-09T05:58:56;14.90;94.30
33271;DHT22;53180;51.344;6.152;2022-09-09T06:01:28;15.00;94.20
33271;DHT22;53180;51.344;6.152;2022-09-09T06:03:57;15.00;94.30
33271;DHT22;53180;51.344;6.152;2022-09-09T06:06:31;15.00;94.20
33271;DHT22;53180;51.344;6.152;2022-09-09T06:09:05;15.00;94.10
33271;DHT22;53180;51.344;6.152;2022-09-09T06:11:38;15.10;94.10
33271;DHT22;53180;51.344;6.152;2022-09-09T06:14:08;15.20;93.90
33271;DHT22;53180;51.344;6.152;2022-09-09T06:16:37;15.20;93.80
33271;DHT22;53180;51.344;6.152;2022-09-09T06:19:05;15.30;93.50
33271;DHT22;53180;51.344;6.152;2022-09-09T06:21:36;15.40;93.40
33271;DHT22;53180;51.344;6.152;2022-09-09T06:24:05;15.60;92.70
33271;DHT22;53180;51.344;6.152;2022-09-09T06:26:36;15.70;92.90
33271;DHT22;53180;51.344;6.152;2022-09-09T06:29:06;15.70;92.40
33271;DHT22;53180;51.344;6.152;2022-09-09T06:31:36;15.70;92.50
33271;DHT22;53180;51.344;6.152;2022-09-09T06:34:06;15.70;92.40
33271;DHT22;53180;51.344;6.152;2022-09-09T06:36:37;15.60;92.60
33271;DHT22;53180;51.344;6.152;2022-09-09T06:39:07;15.50;92.30
33271;DHT22;53180;51.344;6.152;2022-09-09T06:41:41;15.60;92.70
33271;DHT22;53180;51.344;6.152;2022-09-09T06:44:10;15.60;92.70
33271;DHT22;53180;51.344;6.152;2022-09-09T06:46:39;15.60;92.60
33271;DHT22;53180;51.344;6.152;2022-09-09T06:49:08;15.70;92.50
33271;DHT22;53180;51.344;6.152;2022-09-09T06:51:38;15.80;92.60
33271;DHT22;53180;51.344;6.152;2022-09-09T06:54:10;15.80;92.40
33271;DHT22;53180;51.344;6.152;2022-09-09T06:56:40;15.70;92.40
33271;DHT22;53180;51.344;6.152;2022-09-09T06:59:10;15.60;92.00
33271;DHT22;53180;51.344;6.152;2022-09-09T07:01:41;15.60;92.00
33271;DHT22;53180;51.344;6.152;2022-09-09T07:04:10;15.50;92.20
33271;DHT22;53180;51.344;6.152;2022-09-09T07:06:43;15.50;92.50
33271;DHT22;53180;51.344;6.152;2022-09-09T07:09:14;15.60;92.40
33271;DHT22;53180;51.344;6.152;2022-09-09T07:11:45;15.70;92.10
33271;DHT22;53180;51.344;6.152;2022-09-09T07:14:15;15.90;91.40
33271;DHT22;53180;51.344;6.152;2022-09-09T07:16:44;16.10;91.20
33271;DHT22;53180;51.344;6.152;2022-09-09T07:19:14;16.10;90.70
33271;DHT22;53180;51.344;6.152;2022-09-09T07:21:44;16.20;90.60
33271;DHT22;53180;51.344;6.152;2022-09-09T07:24:12;16.10;90.70
33271;DHT22;53180;51.344;6.152;2022-09-09T07:26:42;16.10;90.70
33271;DHT22;53180;51.344;6.152;2022-09-09T07:29:12;16.20;90.10
33271;DHT22;53180;51.344;6.152;2022-09-09T07:31:46;16.40;90.20
33271;DHT22;53180;51.344;6.152;2022-09-09T07:34:15;16.40;89.40
33271;DHT22;53180;51.344;6.152;2022-09-09T07:36:44;16.50;89.50
33271;DHT22;53180;51.344;6.152;2022-09-09T07:39:14;16.50;88.90
33271;DHT22;53180;51.344;6.152;2022-09-09T07:41:45;16.60;89.10
33271;DHT22;53180;51.344;6.152;2022-09-09T07:44:16;16.60;88.90
33271;DHT22;53180;51.344;6.152;2022-09-09T07:46:48;16.50;88.40
33271;DHT22;53180;51.344;6.152;2022-09-09T07:49:17;16.50;88.40
33271;DHT22;53180;51.344;6.152;2022-09-09T07:51:55;16.40;88.30
33271;DHT22;53180;51.344;6.152;2022-09-09T07:54:24;16.30;88.60
33271;DHT22;53180;51.344;6.152;2022-09-09T07:56:52;16.50;88.90
33271;DHT22;53180;51.344;6.152;2022-09-09T07:59:21;16.60;89.00
33271;DHT22;53180;51.344;6.152;2022-09-09T08:01:53;16.80;88.60
33271;DHT22;53180;51.344;6.152;2022-09-09T08:04:23;16.90;88.10
33271;DHT22;53180;51.344;6.152;2022-09-09T08:06:56;17.00;86.60
33271;DHT22;53180;51.344;6.152;2022-09-09T08:09:26;17.00;86.80
33271;DHT22;53180;51.344;6.152;2022-09-09T08:11:56;17.30;86.10
33271;DHT22;53180;51.344;6.152;2022-09-09T08:14:25;17.50;85.10
33271;DHT22;53180;51.344;6.152;2022-09-09T08:16:53;17.50;85.30
33271;DHT22;53180;51.344;6.152;2022-09-09T08:19:24;17.30;85.20
33271;DHT22;53180;51.344;6.152;2022-09-09T08:21:52;17.30;85.10
33271;DHT22;53180;51.344;6.152;2022-09-09T08:24:22;17.30;85.20
33271;DHT22;53180;51.344;6.152;2022-09-09T08:26:50;17.20;84.50
33271;DHT22;53180;51.344;6.152;2022-09-09T08:29:19;17.10;83.90
33271;DHT22;53180;51.344;6.152;2022-09-09T08:31:49;17.00;84.70
33271;DHT22;53180;51.344;6.152;2022-09-09T08:34:19;16.90;84.50
33271;DHT22;53180;51.344;6.152;2022-09-09T08:36:49;16.90;85.60
33271;DHT22;53180;51.344;6.152;2022-09-09T08:39:19;16.90;84.80
33271;DHT22;53180;51.344;6.152;2022-09-09T08:42:17;16.90;85.20
33271;DHT22;53180;51.344;6.152;2022-09-09T08:44:58;17.00;84.10
33271;DHT22;53180;51.344;6.152;2022-09-09T08:47:39;17.00;84.80
33271;DHT22;53180;51.344;6.152;2022-09-09T08:50:19;16.90;84.80
33271;DHT22;53180;51.344;6.152;2022-09-09T08:52:55;16.90;84.10
33271;DHT22;53180;51.344;6.152;2022-09-09T08:55:36;16.90;84.60
33271;DHT22;53180;51.344;6.152;2022-09-09T08:58:13;17.00;84.40
33271;DHT22;53180;51.344;6.152;2022-09-09T09:00:50;17.30;84.00
33271;DHT22;53180;51.344;6.152;2022-09-09T09:03:48;17.80;83.20
33271;DHT22;53180;51.344;6.152;2022-09-09T09:06:31;17.90;82.30
33271;DHT22;53180;51.344;6.152;2022-09-09T09:09:13;18.00;80.50
33271;DHT22;53180;51.344;6.152;2022-09-09T09:11:49;17.80;80.80
33271;DHT22;53180;51.344;6.152;2022-09-09T09:14:22;17.70;81.10
33271;DHT22;53180;51.344;6.152;2022-09-09T09:16:54;17.50;80.60
33271;DHT22;53180;51.344;6.152;2022-09-09T09:19:27;17.50;81.70
33271;DHT22;53180;51.344;6.152;2022-09-09T09:22:02;17.50;82.30
33271;DHT22;53180;51.344;6.152;2022-09-09T09:24:41;17.50;82.10
33271;DHT22;53180;51.344;6.152;2022-09-09T09:27:21;17.50;82.10
33271;DHT22;53180;51.344;6.152;2022-09-09T09:30:05;17.60;81.20
33271;DHT22;53180;51.344;6.152;2022-09-09T09:32:56;17.60;80.20
33271;DHT22;53180;51.344;6.152;2022-09-09T09:35:27;17.70;79.80
33271;DHT22;53180;51.344;6.152;2022-09-09T09:37:55;17.70;81.30
33271;DHT22;53180;51.344;6.152;2022-09-09T09:40:51;17.70;80.50
33271;DHT22;53180;51.344;6.152;2022-09-09T09:43:25;17.50;78.80
33271;DHT22;53180;51.344;6.152;2022-09-09T09:45:57;17.50;78.70
33271;DHT22;53180;51.344;6.152;2022-09-09T09:48:43;17.40;79.00
33271;DHT22;53180;51.344;6.152;2022-09-09T09:51:22;17.30;79.50
33271;DHT22;53180;51.344;6.152;2022-09-09T09:53:51;17.30;79.60
33271;DHT22;53180;51.344;6.152;2022-09-09T09:56:27;17.20;80.60
33271;DHT22;53180;51.344;6.152;2022-09-09T09:58:56;17.20;80.20
33271;DHT22;53180;51.344;6.152;2022-09-09T10:01:28;17.20;80.80
33271;DHT22;53180;51.344;6.152;2022-09-09T10:04:01;17.10;81.70
33271;DHT22;53180;51.344;6.152;2022-09-09T10:06:32;17.10;81.30
33271;DHT22;53180;51.344;6.152;2022-09-09T10:09:01;17.10;81.60
33271;DHT22;53180;51.344;6.152;2022-09-09T10:11:43;17.20;81.10
33271;DHT22;53180;51.344;6.152;2022-09-09T10:14:18;17.30;80.50
33271;DHT22;53180;51.344;6.152;2022-09-09T10:16:59;17.40;80.90
33271;DHT22;53180;51.344;6.152;2022-09-09T10:19:35;17.50;80.00
33271;DHT22;53180;51.344;6.152;2022-09-09T10:22:14;17.50;80.00
33271;DHT22;53180;51.344;6.152;2022-09-09T10:25:26;17.60;80.00
33271;DHT22;53180;51.344;6.152;2022-09-09T10:28:30;17.50;79.40
33271;DHT22;53180;51.344;6.152;2022-09-09T10:31:14;17.50;79.00
33271;DHT22;53180;51.344;6.152;2022-09-09T10:33:51;17.50;79.50
33271;DHT22;53180;51.344;6.152;2022-09-09T10:36:23;17.50;80.80
33271;DHT22;53180;51.344;6.152;2022-09-09T10:38:58;17.60;80.30
33271;DHT22;53180;51.344;6.152;2022-09-09T10:41:42;17.70;80.40
33271;DHT22;53180;51.344;6.152;2022-09-09T10:44:21;17.80;80.50
33271;DHT22;53180;51.344;6.152;2022-09-09T10:47:12;17.80;80.10
33271;DHT22;53180;51.344;6.152;2022-09-09T10:50:14;17.90;79.90
33271;DHT22;53180;51.344;6.152;2022-09-09T10:52:58;17.70;82.80
33271;DHT22;53180;51.344;6.152;2022-09-09T10:55:37;17.20;85.50
33271;DHT22;53180;51.344;6.152;2022-09-09T10:58:12;17.00;88.00
33271;DHT22;53180;51.344;6.152;2022-09-09T11:00:47;16.80;88.80
33271;DHT22;53180;51.344;6.152;2022-09-09T11:03:26;16.80;89.00
33271;DHT22;53180;51.344;6.152;2022-09-09T11:06:01;16.80;88.50
33271;DHT22;53180;51.344;6.152;2022-09-09T11:08:35;16.90;90.10
33271;DHT22;53180;51.344;6.152;2022-09-09T11:11:10;17.10;90.20
33271;DHT22;53180;51.344;6.152;2022-09-09T11:13:48;17.30;90.10
33271;DHT22;53180;51.344;6.152;2022-09-09T11:16:25;17.40;90.20
33271;DHT22;53180;51.344;6.152;2022-09-09T11:19:01;17.40;89.00
33271;DHT22;53180;51.344;6.152;2022-09-09T11:21:36;17.30;88.80
33271;DHT22;53180;51.344;6.152;2022-09-09T11:24:10;17.30;88.50
33271;DHT22;53180;51.344;6.152;2022-09-09T11:26:44;17.30;88.30
33271;DHT22;53180;51.344;6.152;2022-09-09T11:29:38;17.30;87.60
33271;DHT22;53180;51.344;6.152;2022-09-09T11:32:28;17.20;86.90
33271;DHT22;53180;51.344;6.152;2022-09-09T11:35:30;17.20;87.30
33271;DHT22;53180;51.344;6.152;2022-09-09T11:38:19;17.10;89.50
33271;DHT22;53180;51.344;6.152;2022-09-09T11:40:59;16.90;89.90
33271;DHT22;53180;51.344;6.152;2022-09-09T11:43:32;16.90;90.40
33271;DHT22;53180;51.344;6.152;2022-09-09T11:46:03;16.70;90.60
33271;DHT22;53180;51.344;6.152;2022-09-09T11:48:33;16.80;91.30
33271;DHT22;53180;51.344;6.152;2022-09-09T11:51:04;16.70;91.30
33271;DHT22;53180;51.344;6.152;2022-09-09T11:53:50;16.60;91.40
33271;DHT22;53180;51.344;6.152;2022-09-09T11:56:28;16.50;91.80
33271;DHT22;53180;51.344;6.152;2022-09-09T11:59:00;16.40;92.00
33271;DHT22;53180;51.344;6.152;2022-09-09T12:01:38;16.30;92.70
33271;DHT22;53180;51.344;6.152;2022-09-09T12:04:41;16.30;92.90
33271;DHT22;53180;51.344;6.152;2022-09-09T12:07:31;16.40;93.30
33271;DHT22;53180;51.344;6.152;2022-09-09T12:10:05;16.30;93.20
33271;DHT22;53180;51.344;6.152;2022-09-09T12:12:48;16.50;93.60
33271;DHT22;53180;51.344;6.152;2022-09-09T12:15:20;16.80;93.90
33271;DHT22;53180;51.344;6.152;2022-09-09T12:17:56;16.90;93.50
33271;DHT22;53180;51.344;6.152;2022-09-09T12:20:34;17.00;93.30
33271;DHT22;53180;51.344;6.152;2022-09-09T12:23:22;17.10;92.70
33271;DHT22;53180;51.344;6.152;2022-09-09T12:26:04;17.20;92.70
33271;DHT22;53180;51.344;6.152;2022-09-09T12:28:50;17.20;92.70
33271;DHT22;53180;51.344;6.152;2022-09-09T12:31:26;17.00;91.90
33271;DHT22;53180;51.344;6.152;2022-09-09T12:34:09;17.00;91.80
33271;DHT22;53180;51.344;6.152;2022-09-09T12:36:40;17.20;92.60
33271;DHT22;53180;51.344;6.152;2022-09-09T12:39:29;17.40;92.10
33271;DHT22;53180;51.344;6.152;2022-09-09T12:42:02;17.40;91.20
33271;DHT22;53180;51.344;6.152;2022-09-09T12:44:31;17.50;91.40
33271;DHT22;53180;51.344;6.152;2022-09-09T12:47:02;17.50;90.30
33271;DHT22;53180;51.344;6.152;2022-09-09T12:49:33;17.60;91.10
33271;DHT22;53180;51.344;6.152;2022-09-09T12:52:07;17.50;90.40
33271;DHT22;53180;51.344;6.152;2022-09-09T12:54:44;17.60;90.30
33271;DHT22;53180;51.344;6.152;2022-09-09T12:57:15;17.70;90.30
33271;DHT22;53180;51.344;6.152;2022-09-09T12:59:44;17.70;88.80
33271;DHT22;53180;51.344;6.152;2022-09-09T13:02:21;17.60;89.00
33271;DHT22;53180;51.344;6.152;2022-09-09T13:04:50;17.70;89.70
33271;DHT22;53180;51.344;6.152;2022-09-09T13:07:19;17.70;89.20
33271;DHT22;53180;51.344;6.152;2022-09-09T13:09:49;17.80;88.90
33271;DHT22;53180;51.344;6.152;2022-09-09T13:12:21;17.80;88.80
33271;DHT22;53180;51.344;6.152;2022-09-09T13:14:52;17.90;88.90
33271;DHT22;53180;51.344;6.152;2022-09-09T13:17:24;17.90;87.70
33271;DHT22;53180;51.344;6.152;2022-09-09T13:19:55;18.20;88.80
33271;DHT22;53180;51.344;6.152;2022-09-09T13:22:29;18.40;88.30
33271;DHT22;53180;51.344;6.152;2022-09-09T13:25:02;18.50;84.50
33271;DHT22;53180;51.344;6.152;2022-09-09T13:27:35;18.50;84.90
33271;DHT22;53180;51.344;6.152;2022-09-09T13:30:20;18.40;85.40
33271;DHT22;53180;51.344;6.152;2022-09-09T13:33:06;18.30;85.20
33271;DHT22;53180;51.344;6.152;2022-09-09T13:35:51;18.30;85.90
33271;DHT22;53180;51.344;6.152;2022-09-09T13:38:21;18.30;86.20
33271;DHT22;53180;51.344;6.152;2022-09-09T13:40:57;18.30;86.10
33271;DHT22;53180;51.344;6.152;2022-09-09T13:43:31;18.20;86.10
33271;DHT22;53180;51.344;6.152;2022-09-09T13:46:04;18.00;86.20
33271;DHT22;53180;51.344;6.152;2022-09-09T13:48:34;17.90;85.20
33271;DHT22;53180;51.344;6.152;2022-09-09T13:51:04;17.70;86.20
33271;DHT22;53180;51.344;6.152;2022-09-09T13:53:32;17.30;87.10
33271;DHT22;53180;51.344;6.152;2022-09-09T13:56:02;17.00;88.60
33271;DHT22;53180;51.344;6.152;2022-09-09T13:58:32;16.80;89.40
33271;DHT22;53180;51.344;6.152;2022-09-09T14:01:01;16.60;90.60
33271;DHT22;53180;51.344;6.152;2022-09-09T14:03:30;16.50;90.90
33271;DHT22;53180;51.344;6.152;2022-09-09T14:05:58;16.30;91.30
33271;DHT22;53180;51.344;6.152;2022-09-09T14:08:28;16.10;91.60
33271;DHT22;53180;51.344;6.152;2022-09-09T14:11:04;16.00;91.80
33271;DHT22;53180;51.344;6.152;2022-09-09T14:13:34;15.80;92.00
33271;DHT22;53180;51.344;6.152;2022-09-09T14:16:04;15.80;92.50
33271;DHT22;53180;51.344;6.152;2022-09-09T14:18:33;15.70;92.80
33271;DHT22;53180;51.344;6.152;2022-09-09T14:21:01;15.80;93.40
33271;DHT22;53180;51.344;6.152;2022-09-09T14:23:30;16.00;93.50
33271;DHT22;53180;51.344;6.152;2022-09-09T14:25:59;16.20;93.80
33271;DHT22;53180;51.344;6.152;2022-09-09T14:28:27;16.20;93.50
33271;DHT22;53180;51.344;6.152;2022-09-09T14:31:17;16.30;93.30
33271;DHT22;53180;51.344;6.152;2022-09-09T14:33:46;16.30;93.20
33271;DHT22;53180;51.344;6.152;2022-09-09T14:36:14;16.20;92.80
33271;DHT22;53180;51.344;6.152;2022-09-09T14:38:43;16.20;92.50
33271;DHT22;53180;51.344;6.152;2022-09-09T14:41:12;16.20;92.80
33271;DHT22;53180;51.344;6.152;2022-09-09T14:43:44;16.30;92.80
33271;DHT22;53180;51.344;6.152;2022-09-09T14:46:14;16.40;93.20
33271;DHT22;53180;51.344;6.152;2022-09-09T14:48:45;16.50;92.60
33271;DHT22;53180;51.344;6.152;2022-09-09T14:51:17;16.70;93.10
33271;DHT22;53180;51.344;6.152;2022-09-09T14:53:51;16.70;92.30
33271;DHT22;53180;51.344;6.152;2022-09-09T14:56:23;16.80;92.30
33271;DHT22;53180;51.344;6.152;2022-09-09T14:58:54;16.90;92.60
33271;DHT22;53180;51.344;6.152;2022-09-09T15:01:23;17.10;91.90
33271;DHT22;53180;51.344;6.152;2022-09-09T15:03:56;17.30;92.00
33271;DHT22;53180;51.344;6.152;2022-09-09T15:06:27;17.40;92.10
33271;DHT22;53180;51.344;6.152;2022-09-09T15:08:58;17.50;91.20
33271;DHT22;53180;51.344;6.152;2022-09-09T15:11:28;17.50;91.60
33271;DHT22;53180;51.344;6.152;2022-09-09T15:13:58;17.60;91.50
33271;DHT22;53180;51.344;6.152;2022-09-09T15:16:28;17.60;91.20
33271;DHT22;53180;51.344;6.152;2022-09-09T15:18:59;17.70;90.80
33271;DHT22;53180;51.344;6.152;2022-09-09T15:21:31;17.50;90.10
33271;DHT22;53180;51.344;6.152;2022-09-09T15:24:01;17.50;90.20
33271;DHT22;53180;51.344;6.152;2022-09-09T15:26:31;17.50;90.40
33271;DHT22;53180;51.344;6.152;2022-09-09T15:29:00;17.50;90.70
33271;DHT22;53180;51.344;6.152;2022-09-09T15:31:30;17.60;90.60
33271;DHT22;53180;51.344;6.152;2022-09-09T15:34:01;17.60;90.60
33271;DHT22;53180;51.344;6.152;2022-09-09T15:36:32;17.70;90.70
33271;DHT22;53180;51.344;6.152;2022-09-09T15:39:02;17.70;90.40
33271;DHT22;53180;51.344;6.152;2022-09-09T15:41:32;17.80;90.40
33271;DHT22;53180;51.344;6.152;2022-09-09T15:44:02;17.80;90.40
33271;DHT22;53180;51.344;6.152;2022-09-09T15:46:32;17.80;89.90
33271;DHT22;53180;51.344;6.152;2022-09-09T15:49:08;17.80;89.90
33271;DHT22;53180;51.344;6.152;2022-09-09T15:51:38;17.90;89.80
33271;DHT22;53180;51.344;6.152;2022-09-09T15:54:11;18.00;89.80
33271;DHT22;53180;51.344;6.152;2022-09-09T15:56:41;18.00;89.20
33271;DHT22;53180;51.344;6.152;2022-09-09T15:59:10;18.10;88.80
33271;DHT22;53180;51.344;6.152;2022-09-09T16:01:39;18.10;88.80
33271;DHT22;53180;51.344;6.152;2022-09-09T16:04:10;18.20;88.20
33271;DHT22;53180;51.344;6.152;2022-09-09T16:06:39;18.20;87.80
33271;DHT22;53180;51.344;6.152;2022-09-09T16:09:08;18.20;87.30
33271;DHT22;53180;51.344;6.152;2022-09-09T16:11:37;18.20;85.80
33271;DHT22;53180;51.344;6.152;2022-09-09T16:14:07;18.10;86.10